PWSweather.com
Personal Weather Stations
Station Observations

VallonFR

Lat: 44.407452, Lon: 4.395400999999993

Elevation: 150

Station Type: Oregon

http://meteo07150.alwaysdata.net/meteo/

Latest ConditionsUpdated 4:35:05 PM GMT+01:01 Saturday, Nov 17, 2018
Currently Today's Max Today's Min Today's Average
Temperature 46.9°F8.3°C 51.8°F11.0°C 46.9°F8.3°C 49.8°F9.9°C
Dew Point 45.5°F7.5°C 50.6°F10.3°C 45.5°F7.5°C 48.5°F9.2°C
Winds 2.2 mph SE3.5 kmh SE 11.2 mph -18.0 kmh - - 4.5 mph 7.2 kmh
Wind Gusts 2.2 mph3.5 kmh 13.2 mph21.2 kmh - -
Humidity 95% 97% 94% 95%
Pressure 30.11 in1019.6 mb 30.13 in1020.3 mb 30.04 in1017.3 mb -
Precipitation - 0.17 in4.3 mm - -
Hour Temp Dew Point Humidity Winds Wind Gusts Pressure Precip Precip Rate Daily Precip Total
04:35 PM 46.9°F8.3°C 45.5°F7.5°C 95% 2.2 mph SE3.5 kmh SE 2.2 mph3.5 kmh 30.11 in1019.6 mb 0.00 in0.0 mm 0.00 in0.0 mm 0.17 in4.3 mm
04:30 PM 47.3°F8.5°C 45.9°F7.7°C 95% Calm Calm 2.0 mph3.2 kmh 30.11 in1019.6 mb 0.00 in0.0 mm 0.00 in0.0 mm 0.17 in4.3 mm
04:25 PM 47.3°F8.5°C 45.9°F7.7°C 95% Calm Calm 2.2 mph3.5 kmh 30.11 in1019.6 mb 0.00 in0.0 mm 0.00 in0.0 mm 0.17 in4.3 mm
04:20 PM 47.3°F8.5°C 45.9°F7.7°C 95% Calm Calm 2.0 mph3.2 kmh 30.11 in1019.6 mb 0.00 in0.0 mm 0.00 in0.0 mm 0.17 in4.3 mm
04:15 PM 47.3°F8.5°C 45.9°F7.7°C 95% Calm Calm 2.2 mph3.5 kmh 30.08 in1018.6 mb 0.04 in1.0 mm 0.00 in0.0 mm 0.17 in4.3 mm
04:10 PM 47.4°F8.6°C 46.1°F7.8°C 95% 2.2 mph ESE3.5 kmh ESE 2.2 mph3.5 kmh 30.08 in1018.6 mb 0.04 in1.0 mm 0.00 in0.0 mm 0.17 in4.3 mm
04:05 PM 47.3°F8.5°C 45.9°F7.7°C 95% Calm Calm 2.7 mph4.3 kmh 30.08 in1018.6 mb 0.04 in1.0 mm 0.00 in0.0 mm 0.17 in4.3 mm
04:00 PM 47.3°F8.5°C 45.6°F7.6°C 94% Calm Calm 2.5 mph4.0 kmh 30.08 in1018.6 mb 0.04 in1.0 mm 0.00 in0.0 mm 0.17 in4.3 mm
03:55 PM 47.3°F8.5°C 45.6°F7.6°C 94% 3.1 mph S5.0 kmh S 4.3 mph6.9 kmh 30.08 in1018.6 mb 0.04 in1.0 mm 0.00 in0.0 mm 0.17 in4.3 mm
03:50 PM 47.3°F8.5°C 45.6°F7.6°C 94% 6.3 mph S10.1 kmh S 7.8 mph12.6 kmh 30.08 in1018.6 mb 0.04 in1.0 mm 0.00 in0.0 mm 0.17 in4.3 mm
03:45 PM 47.4°F8.6°C 45.8°F7.7°C 94% 3.4 mph SSE5.5 kmh SSE 6.5 mph10.5 kmh 30.08 in1018.6 mb 0.04 in1.0 mm 0.00 in0.0 mm 0.17 in4.3 mm
03:40 PM 47.4°F8.6°C 45.8°F7.7°C 94% 6.5 mph SSE10.5 kmh SSE 6.5 mph10.5 kmh 30.08 in1018.6 mb 0.04 in1.0 mm 0.00 in0.0 mm 0.17 in4.3 mm
03:35 PM 47.6°F8.7°C 46.0°F7.8°C 94% 4.3 mph S6.9 kmh S 5.8 mph9.3 kmh 30.08 in1018.6 mb 0.04 in1.0 mm 0.00 in0.0 mm 0.17 in4.3 mm
03:30 PM 47.6°F8.7°C 46.0°F7.8°C 94% 5.4 mph SSE8.7 kmh SSE 12.1 mph19.5 kmh 30.08 in1018.6 mb 0.04 in1.0 mm 0.00 in0.0 mm 0.17 in4.3 mm
03:25 PM 48.0°F8.9°C 46.6°F8.1°C 95% 8.5 mph SSE13.7 kmh SSE 12.1 mph19.5 kmh 30.08 in1018.6 mb 0.04 in1.0 mm 0.00 in0.0 mm 0.17 in4.3 mm
03:20 PM 48.3°F9.1°C 47.0°F8.3°C 95% 9.6 mph SSE15.4 kmh SSE 9.6 mph15.4 kmh 30.07 in1018.3 mb 0.08 in2.0 mm 0.48 in12.2 mm 0.13 in3.3 mm
03:15 PM 48.2°F9.0°C 46.8°F8.2°C 95% 8.5 mph SSE13.7 kmh SSE 8.7 mph14.0 kmh 30.08 in1018.6 mb 0.04 in1.0 mm 0.00 in0.0 mm 0.13 in3.3 mm
03:10 PM 48.2°F9.0°C 46.8°F8.2°C 95% 7.6 mph S12.2 kmh S 8.1 mph13.0 kmh 30.08 in1018.6 mb 0.04 in1.0 mm 0.00 in0.0 mm 0.13 in3.3 mm
03:05 PM 48.2°F9.0°C 46.8°F8.2°C 95% 7.4 mph S11.9 kmh S 8.1 mph13.0 kmh 30.08 in1018.6 mb 0.04 in1.0 mm 0.00 in0.0 mm 0.13 in3.3 mm
03:00 PM 48.3°F9.1°C 47.0°F8.3°C 95% 9.2 mph SSE14.8 kmh SSE 9.2 mph14.8 kmh 30.07 in1018.3 mb 0.04 in1.0 mm 0.00 in0.0 mm 0.13 in3.3 mm
02:55 PM 48.3°F9.1°C 47.0°F8.3°C 95% 8.7 mph SSE14.0 kmh SSE 13.2 mph21.2 kmh 30.07 in1018.3 mb 0.04 in1.0 mm 0.00 in0.0 mm 0.13 in3.3 mm
02:50 PM 48.5°F9.2°C 47.1°F8.4°C 95% 6.3 mph SSE10.1 kmh SSE 7.4 mph11.9 kmh 30.07 in1018.3 mb 0.04 in1.0 mm 0.00 in0.0 mm 0.13 in3.3 mm
02:45 PM 48.5°F9.2°C 47.1°F8.4°C 95% 4.0 mph SSE6.4 kmh SSE 5.6 mph9.0 kmh 30.07 in1018.3 mb 0.04 in1.0 mm 0.00 in0.0 mm 0.13 in3.3 mm
02:40 PM 48.7°F9.3°C 47.3°F8.5°C 95% 5.8 mph SSE9.3 kmh SSE 5.8 mph9.3 kmh 30.07 in1018.3 mb 0.04 in1.0 mm 0.00 in0.0 mm 0.13 in3.3 mm
02:35 PM 48.9°F9.4°C 47.5°F8.6°C 95% 5.6 mph SE9.0 kmh SE 7.2 mph11.6 kmh 30.07 in1018.3 mb 0.04 in1.0 mm 0.00 in0.0 mm 0.13 in3.3 mm
02:30 PM 49.1°F9.5°C 47.7°F8.7°C 95% 9.6 mph SSE15.4 kmh SSE 9.6 mph15.4 kmh 30.07 in1018.3 mb 0.04 in1.0 mm 0.00 in0.0 mm 0.13 in3.3 mm
02:25 PM 49.1°F9.5°C 47.7°F8.7°C 95% 4.0 mph SE6.4 kmh SE 6.0 mph9.7 kmh 30.07 in1018.3 mb 0.04 in1.0 mm 0.48 in12.2 mm 0.09 in2.3 mm
02:20 PM 49.2°F9.6°C 47.9°F8.8°C 95% 1.1 mph SSE1.8 kmh SSE 6.5 mph10.5 kmh 30.07 in1018.3 mb 0.00 in0.0 mm 0.00 in0.0 mm 0.09 in2.3 mm
02:15 PM 49.2°F9.6°C 47.9°F8.8°C 95% 6.5 mph SSE10.5 kmh SSE 9.4 mph15.1 kmh 30.07 in1018.3 mb 0.00 in0.0 mm 0.00 in0.0 mm 0.09 in2.3 mm
02:10 PM 49.4°F9.7°C 48.0°F8.9°C 95% 6.7 mph SSE10.8 kmh SSE 7.4 mph11.9 kmh 30.07 in1018.3 mb 0.00 in0.0 mm 0.00 in0.0 mm 0.09 in2.3 mm
02:05 PM 49.6°F9.8°C 48.2°F9.0°C 95% 4.0 mph S6.4 kmh S 5.4 mph8.7 kmh 30.07 in1018.3 mb 0.00 in0.0 mm 0.00 in0.0 mm 0.09 in2.3 mm
02:00 PM 49.6°F9.8°C 48.2°F9.0°C 95% 5.8 mph SSE9.3 kmh SSE 6.5 mph10.5 kmh 30.04 in1017.3 mb 0.00 in0.0 mm 0.00 in0.0 mm 0.09 in2.3 mm
01:55 PM 49.8°F9.9°C 48.4°F9.1°C 95% 5.8 mph SSE9.3 kmh SSE 5.8 mph9.3 kmh 30.04 in1017.3 mb 0.00 in0.0 mm 0.00 in0.0 mm 0.09 in2.3 mm
01:50 PM 49.8°F9.9°C 48.4°F9.1°C 95% 4.9 mph SSE7.9 kmh SSE 8.5 mph13.7 kmh 30.04 in1017.3 mb 0.00 in0.0 mm 0.00 in0.0 mm 0.09 in2.3 mm
01:45 PM 50.0°F10.0°C 48.3°F9.1°C 94% 8.5 mph SSE13.7 kmh SSE 9.8 mph15.8 kmh 30.07 in1018.3 mb 0.00 in0.0 mm 0.00 in0.0 mm 0.09 in2.3 mm
01:40 PM 50.0°F10.0°C 48.6°F9.2°C 95% 4.9 mph SSE7.9 kmh SSE 9.6 mph15.4 kmh 30.07 in1018.3 mb 0.00 in0.0 mm 0.00 in0.0 mm 0.09 in2.3 mm
01:35 PM 50.1°F10.1°C 48.8°F9.3°C 95% 6.3 mph SSE10.1 kmh SSE 7.6 mph12.2 kmh 30.07 in1018.3 mb 0.00 in0.0 mm 0.00 in0.0 mm 0.09 in2.3 mm
01:30 PM 50.1°F10.1°C 48.8°F9.3°C 95% 7.6 mph SSE12.2 kmh SSE 7.6 mph12.2 kmh 30.07 in1018.3 mb 0.00 in0.0 mm 0.00 in0.0 mm 0.09 in2.3 mm
01:25 PM 50.1°F10.1°C 48.8°F9.3°C 95% 7.6 mph SSE12.2 kmh SSE 11.2 mph18.0 kmh 30.07 in1018.3 mb 0.00 in0.0 mm 0.00 in0.0 mm 0.09 in2.3 mm
01:20 PM 50.3°F10.2°C 48.9°F9.4°C 95% 11.2 mph S18.0 kmh S 11.2 mph18.0 kmh 30.07 in1018.3 mb 0.00 in0.0 mm 0.00 in0.0 mm 0.09 in2.3 mm
01:15 PM 50.5°F10.3°C 49.1°F9.5°C 95% 4.3 mph SSE6.9 kmh SSE 4.3 mph6.9 kmh 30.07 in1018.3 mb 0.00 in0.0 mm 0.00 in0.0 mm 0.09 in2.3 mm
01:10 PM 50.3°F10.2°C 48.9°F9.4°C 95% 3.4 mph S5.5 kmh S 5.6 mph9.0 kmh 30.07 in1018.3 mb 0.00 in0.0 mm 0.00 in0.0 mm 0.09 in2.3 mm
01:05 PM 50.3°F10.2°C 48.9°F9.4°C 95% 5.6 mph S9.0 kmh S 6.0 mph9.7 kmh 30.07 in1018.3 mb 0.00 in0.0 mm 0.00 in0.0 mm 0.09 in2.3 mm
01:00 PM 50.5°F10.3°C 49.1°F9.5°C 95% 6.0 mph SE9.7 kmh SE 9.8 mph15.8 kmh 30.07 in1018.3 mb 0.00 in0.0 mm 0.00 in0.0 mm 0.09 in2.3 mm
12:55 PM 50.7°F10.4°C 49.3°F9.6°C 95% 9.8 mph SSW15.8 kmh SSW 9.8 mph15.8 kmh 30.07 in1018.3 mb 0.00 in0.0 mm 0.00 in0.0 mm 0.09 in2.3 mm
12:50 PM 50.7°F10.4°C 49.3°F9.6°C 95% 7.8 mph SSE12.6 kmh SSE 7.8 mph12.6 kmh 30.07 in1018.3 mb 0.05 in1.3 mm 0.00 in0.0 mm 0.09 in2.3 mm
12:45 PM 51.0°F10.6°C 49.9°F9.9°C 96% 7.8 mph SSE12.6 kmh SSE 7.8 mph12.6 kmh 30.04 in1017.3 mb 0.05 in1.3 mm 0.00 in0.0 mm 0.09 in2.3 mm
12:40 PM 51.2°F10.7°C 50.1°F10.1°C 96% 3.6 mph SSE5.8 kmh SSE 5.4 mph8.7 kmh 30.04 in1017.3 mb 0.05 in1.3 mm 0.00 in0.0 mm 0.09 in2.3 mm
12:35 PM 51.2°F10.7°C 50.1°F10.1°C 96% 4.3 mph SSE6.9 kmh SSE 8.1 mph13.0 kmh 30.04 in1017.3 mb 0.05 in1.3 mm 0.00 in0.0 mm 0.09 in2.3 mm
12:30 PM 51.6°F10.9°C 50.5°F10.3°C 96% 5.8 mph SSE9.3 kmh SSE 6.0 mph9.7 kmh 30.07 in1018.3 mb 0.05 in1.3 mm 0.00 in0.0 mm 0.09 in2.3 mm
12:25 PM 51.6°F10.9°C 50.5°F10.3°C 96% 3.1 mph S5.0 kmh S 5.8 mph9.3 kmh 30.07 in1018.3 mb 0.05 in1.3 mm 0.00 in0.0 mm 0.09 in2.3 mm
12:20 PM 51.8°F11.0°C 50.6°F10.3°C 96% 5.4 mph S8.7 kmh S 5.4 mph8.7 kmh 30.07 in1018.3 mb 0.05 in1.3 mm 0.00 in0.0 mm 0.09 in2.3 mm
12:15 PM 51.6°F10.9°C 50.5°F10.3°C 96% 7.8 mph S12.6 kmh S 7.8 mph12.6 kmh 30.07 in1018.3 mb 0.05 in1.3 mm 0.00 in0.0 mm 0.09 in2.3 mm
12:10 PM 51.4°F10.8°C 50.3°F10.2°C 96% 7.6 mph SSE12.2 kmh SSE 8.5 mph13.7 kmh 30.07 in1018.3 mb 0.05 in1.3 mm 0.00 in0.0 mm 0.09 in2.3 mm
12:05 PM 51.2°F10.7°C 50.1°F10.1°C 96% 6.5 mph SSE10.5 kmh SSE 13.0 mph20.9 kmh 30.07 in1018.3 mb 0.05 in1.3 mm 0.00 in0.0 mm 0.09 in2.3 mm
12:00 PM 51.2°F10.7°C 50.1°F10.1°C 96% 6.0 mph SSE9.7 kmh SSE 13.0 mph20.9 kmh 30.07 in1018.3 mb 0.05 in1.3 mm 0.00 in0.0 mm 0.09 in2.3 mm
11:55 AM 51.0°F10.6°C 49.9°F9.9°C 96% 6.0 mph SSE9.7 kmh SSE 8.7 mph14.0 kmh 30.07 in1018.3 mb 0.05 in1.3 mm 0.60 in15.2 mm 0.04 in1.0 mm
11:50 AM 51.0°F10.6°C 49.9°F9.9°C 96% 8.7 mph SSE14.0 kmh SSE 9.8 mph15.8 kmh 30.07 in1018.3 mb 0.00 in0.0 mm 0.00 in0.0 mm 0.04 in1.0 mm
11:45 AM 51.0°F10.6°C 49.9°F9.9°C 96% 6.3 mph SSE10.1 kmh SSE 6.3 mph10.1 kmh 30.07 in1018.3 mb 0.00 in0.0 mm 0.00 in0.0 mm 0.04 in1.0 mm
11:40 AM 51.0°F10.6°C 49.9°F9.9°C 96% 4.0 mph SSE6.4 kmh SSE 5.6 mph9.0 kmh 30.07 in1018.3 mb 0.00 in0.0 mm 0.00 in0.0 mm 0.04 in1.0 mm
11:35 AM 51.0°F10.6°C 49.9°F9.9°C 96% 3.1 mph SSE5.0 kmh SSE 6.0 mph9.7 kmh 30.07 in1018.3 mb 0.00 in0.0 mm 0.00 in0.0 mm 0.04 in1.0 mm
11:30 AM 51.0°F10.6°C 49.9°F9.9°C 96% 6.0 mph SSE9.7 kmh SSE 6.0 mph9.7 kmh 30.07 in1018.3 mb 0.00 in0.0 mm 0.00 in0.0 mm 0.04 in1.0 mm
11:25 AM 50.9°F10.5°C 49.7°F9.8°C 96% 3.6 mph SSE5.8 kmh SSE 4.0 mph6.4 kmh 30.07 in1018.3 mb 0.00 in0.0 mm 0.00 in0.0 mm 0.04 in1.0 mm
11:20 AM 50.9°F10.5°C 49.7°F9.8°C 96% 6.5 mph SSE10.5 kmh SSE 6.5 mph10.5 kmh 30.07 in1018.3 mb 0.00 in0.0 mm 0.00 in0.0 mm 0.04 in1.0 mm
11:15 AM 50.9°F10.5°C 49.7°F9.8°C 96% 3.1 mph SSE5.0 kmh SSE 6.7 mph10.8 kmh 30.07 in1018.3 mb 0.00 in0.0 mm 0.00 in0.0 mm 0.04 in1.0 mm
11:10 AM 50.9°F10.5°C 49.7°F9.8°C 96% 3.6 mph SSE5.8 kmh SSE 6.3 mph10.1 kmh 30.07 in1018.3 mb 0.00 in0.0 mm 0.00 in0.0 mm 0.04 in1.0 mm
11:05 AM 50.9°F10.5°C 49.7°F9.8°C 96% 3.8 mph SSE6.1 kmh SSE 6.5 mph10.5 kmh 30.07 in1018.3 mb 0.00 in0.0 mm 0.00 in0.0 mm 0.04 in1.0 mm
11:00 AM 50.9°F10.5°C 49.7°F9.8°C 96% 6.5 mph SSE10.5 kmh SSE 7.8 mph12.6 kmh 30.07 in1018.3 mb 0.00 in0.0 mm 0.00 in0.0 mm 0.04 in1.0 mm
10:55 AM 50.9°F10.5°C 49.7°F9.8°C 96% 7.8 mph S12.6 kmh S 8.5 mph13.7 kmh 30.07 in1018.3 mb 0.00 in0.0 mm 0.00 in0.0 mm 0.04 in1.0 mm
10:50 AM 50.7°F10.4°C 49.6°F9.8°C 96% 7.6 mph SSE12.2 kmh SSE 8.7 mph14.0 kmh 30.07 in1018.3 mb 0.00 in0.0 mm 0.00 in0.0 mm 0.04 in1.0 mm
10:45 AM 50.7°F10.4°C 49.6°F9.8°C 96% 8.7 mph SSE14.0 kmh SSE 9.8 mph15.8 kmh 30.07 in1018.3 mb 0.00 in0.0 mm 0.00 in0.0 mm 0.04 in1.0 mm
10:40 AM 50.7°F10.4°C 49.6°F9.8°C 96% 8.1 mph SSE13.0 kmh SSE 8.1 mph13.0 kmh 30.07 in1018.3 mb 0.00 in0.0 mm 0.00 in0.0 mm 0.04 in1.0 mm
10:35 AM 50.7°F10.4°C 49.6°F9.8°C 96% 7.4 mph SSE11.9 kmh SSE 8.1 mph13.0 kmh 30.07 in1018.3 mb 0.04 in1.0 mm 0.00 in0.0 mm 0.04 in1.0 mm
10:30 AM 50.5°F10.3°C 49.4°F9.7°C 96% 8.1 mph SSE13.0 kmh SSE 8.9 mph14.3 kmh 30.07 in1018.3 mb 0.04 in1.0 mm 0.00 in0.0 mm 0.04 in1.0 mm
10:25 AM 50.5°F10.3°C 49.4°F9.7°C 96% 4.9 mph SSE7.9 kmh SSE 6.3 mph10.1 kmh 30.07 in1018.3 mb 0.04 in1.0 mm 0.00 in0.0 mm 0.04 in1.0 mm
10:20 AM 50.5°F10.3°C 49.4°F9.7°C 96% 3.8 mph SSE6.1 kmh SSE 5.6 mph9.0 kmh 30.07 in1018.3 mb 0.04 in1.0 mm 0.00 in0.0 mm 0.04 in1.0 mm
10:15 AM 50.5°F10.3°C 49.4°F9.7°C 96% 5.6 mph SE9.0 kmh SE 7.6 mph12.2 kmh 30.07 in1018.3 mb 0.04 in1.0 mm 0.00 in0.0 mm 0.04 in1.0 mm
10:10 AM 50.5°F10.3°C 49.4°F9.7°C 96% 7.6 mph SSE12.2 kmh SSE 7.6 mph12.2 kmh 30.07 in1018.3 mb 0.04 in1.0 mm 0.00 in0.0 mm 0.04 in1.0 mm
10:05 AM 50.3°F10.2°C 49.2°F9.6°C 96% 5.4 mph SE8.7 kmh SE 7.4 mph11.9 kmh 30.07 in1018.3 mb 0.04 in1.0 mm 0.00 in0.0 mm 0.04 in1.0 mm
10:00 AM 50.1°F10.1°C 49.0°F9.4°C 96% 7.4 mph SSE11.9 kmh SSE 7.4 mph11.9 kmh 30.07 in1018.3 mb 0.04 in1.0 mm 0.00 in0.0 mm 0.04 in1.0 mm
09:55 AM 50.1°F10.1°C 49.0°F9.4°C 96% 6.3 mph SSE10.1 kmh SSE 6.3 mph10.1 kmh 30.07 in1018.3 mb 0.04 in1.0 mm 0.00 in0.0 mm 0.04 in1.0 mm
09:50 AM 50.1°F10.1°C 49.0°F9.4°C 96% 5.8 mph SSE9.3 kmh SSE 5.8 mph9.3 kmh 30.07 in1018.3 mb 0.04 in1.0 mm 0.00 in0.0 mm 0.04 in1.0 mm
09:45 AM 50.1°F10.1°C 49.0°F9.4°C 96% 5.8 mph SSE9.3 kmh SSE 5.8 mph9.3 kmh 30.07 in1018.3 mb 0.04 in1.0 mm 0.00 in0.0 mm 0.04 in1.0 mm
09:40 AM 50.1°F10.1°C 49.0°F9.4°C 96% 5.8 mph SSE9.3 kmh SSE 5.8 mph9.3 kmh 30.07 in1018.3 mb 0.04 in1.0 mm 0.48 in12.2 mm 0.04 in1.0 mm
09:35 AM 50.1°F10.1°C 49.0°F9.4°C 96% 5.8 mph SSE9.3 kmh SSE 5.8 mph9.3 kmh 30.07 in1018.3 mb 0.00 in0.0 mm 0.00 in0.0 mm 0.00 in0.0 mm
09:30 AM 50.1°F10.1°C 49.0°F9.4°C 96% 3.6 mph SSE5.8 kmh SSE 3.6 mph5.8 kmh 30.07 in1018.3 mb 0.00 in0.0 mm 0.00 in0.0 mm 0.00 in0.0 mm
09:25 AM 50.0°F10.0°C 48.9°F9.4°C 96% 2.5 mph SSE4.0 kmh SSE 2.5 mph4.0 kmh 30.07 in1018.3 mb 0.00 in0.0 mm 0.00 in0.0 mm 0.00 in0.0 mm
09:20 AM 50.0°F10.0°C 48.9°F9.4°C 96% 2.5 mph SSE4.0 kmh SSE 2.5 mph4.0 kmh 30.07 in1018.3 mb 0.00 in0.0 mm 0.00 in0.0 mm 0.00 in0.0 mm
09:15 AM 50.0°F10.0°C 48.9°F9.4°C 96% 2.5 mph SSE4.0 kmh SSE 2.5 mph4.0 kmh 30.07 in1018.3 mb 0.00 in0.0 mm 0.00 in0.0 mm 0.00 in0.0 mm
09:10 AM 50.0°F10.0°C 48.9°F9.4°C 96% 2.5 mph SSE4.0 kmh SSE 2.5 mph4.0 kmh 30.07 in1018.3 mb 0.00 in0.0 mm 0.00 in0.0 mm 0.00 in0.0 mm
09:05 AM 50.0°F10.0°C 48.9°F9.4°C 96% 2.5 mph SSE4.0 kmh SSE 3.4 mph5.5 kmh 30.07 in1018.3 mb 0.00 in0.0 mm 0.00 in0.0 mm 0.00 in0.0 mm
09:00 AM 50.0°F10.0°C 48.9°F9.4°C 96% 3.4 mph SSE5.5 kmh SSE 3.4 mph5.5 kmh 30.07 in1018.3 mb 0.00 in0.0 mm 0.00 in0.0 mm 0.00 in0.0 mm
08:55 AM 50.0°F10.0°C 48.9°F9.4°C 96% Calm Calm -- 30.07 in1018.3 mb 0.00 in0.0 mm 0.00 in0.0 mm 0.00 in0.0 mm
08:50 AM 50.0°F10.0°C 48.9°F9.4°C 96% Calm Calm -- 30.07 in1018.3 mb 0.00 in0.0 mm 0.00 in0.0 mm 0.00 in0.0 mm
08:45 AM 50.0°F10.0°C 48.9°F9.4°C 96% Calm Calm -- 30.07 in1018.3 mb 0.00 in0.0 mm 0.00 in0.0 mm 0.00 in0.0 mm
08:40 AM 50.0°F10.0°C 48.9°F9.4°C 96% Calm Calm -- 30.07 in1018.3 mb 0.00 in0.0 mm 0.00 in0.0 mm 0.00 in0.0 mm
08:35 AM 49.8°F9.9°C 49.0°F9.4°C 97% Calm Calm -- 30.07 in1018.3 mb 0.00 in0.0 mm 0.00 in0.0 mm 0.00 in0.0 mm
08:30 AM 49.8°F9.9°C 48.7°F9.3°C 96% Calm Calm -- 30.07 in1018.3 mb 0.00 in0.0 mm 0.00 in0.0 mm 0.00 in0.0 mm
08:25 AM 49.8°F9.9°C 48.7°F9.3°C 96% Calm Calm -- 30.07 in1018.3 mb 0.00 in0.0 mm 0.00 in0.0 mm 0.00 in0.0 mm
08:20 AM 49.8°F9.9°C 48.7°F9.3°C 96% Calm Calm -- 30.07 in1018.3 mb 0.00 in0.0 mm 0.00 in0.0 mm 0.00 in0.0 mm
08:15 AM 49.8°F9.9°C 48.7°F9.3°C 96% Calm Calm -- 30.07 in1018.3 mb 0.00 in0.0 mm 0.00 in0.0 mm 0.00 in0.0 mm
08:10 AM 49.6°F9.8°C 48.5°F9.2°C 96% Calm Calm -- 30.07 in1018.3 mb 0.00 in0.0 mm 0.00 in0.0 mm 0.00 in0.0 mm
08:05 AM 49.6°F9.8°C 48.5°F9.2°C 96% Calm Calm -- 30.07 in1018.3 mb 0.00 in0.0 mm 0.00 in0.0 mm 0.00 in0.0 mm
08:00 AM 49.6°F9.8°C 48.5°F9.2°C 96% Calm Calm -- 30.07 in1018.3 mb 0.00 in0.0 mm 0.00 in0.0 mm 0.00 in0.0 mm
07:55 AM 49.6°F9.8°C 48.5°F9.2°C 96% Calm Calm -- 30.07 in1018.3 mb 0.00 in0.0 mm 0.00 in0.0 mm 0.00 in0.0 mm
07:50 AM 49.4°F9.7°C 48.3°F9.1°C 96% Calm Calm -- 30.07 in1018.3 mb 0.00 in0.0 mm 0.00 in0.0 mm 0.00 in0.0 mm
07:45 AM 49.4°F9.7°C 48.3°F9.1°C 96% Calm Calm 4.3 mph6.9 kmh 30.07 in1018.3 mb 0.00 in0.0 mm 0.00 in0.0 mm 0.00 in0.0 mm
07:40 AM 49.4°F9.7°C 48.3°F9.1°C 96% 4.3 mph 6.9 kmh 4.3 mph6.9 kmh 30.07 in1018.3 mb 0.00 in0.0 mm 0.00 in0.0 mm 0.00 in0.0 mm
07:35 AM 49.2°F9.6°C 48.1°F8.9°C 96% 4.3 mph 6.9 kmh 4.3 mph6.9 kmh 30.07 in1018.3 mb 0.00 in0.0 mm 0.00 in0.0 mm 0.00 in0.0 mm
07:30 AM 49.2°F9.6°C 48.1°F8.9°C 96% 4.3 mph 6.9 kmh 4.3 mph6.9 kmh 30.07 in1018.3 mb 0.00 in0.0 mm 0.00 in0.0 mm 0.00 in0.0 mm
07:25 AM 49.2°F9.6°C 48.1°F8.9°C 96% 4.3 mph 6.9 kmh 4.3 mph6.9 kmh 30.07 in1018.3 mb 0.00 in0.0 mm 0.00 in0.0 mm 0.00 in0.0 mm
07:20 AM 49.2°F9.6°C 48.1°F8.9°C 96% 4.3 mph 6.9 kmh 4.3 mph6.9 kmh 30.07 in1018.3 mb 0.00 in0.0 mm 0.00 in0.0 mm 0.00 in0.0 mm
07:15 AM 49.4°F9.7°C 48.3°F9.1°C 96% 4.3 mph 6.9 kmh 4.3 mph6.9 kmh 30.07 in1018.3 mb 0.00 in0.0 mm 0.00 in0.0 mm 0.00 in0.0 mm
07:10 AM 49.4°F9.7°C 48.3°F9.1°C 96% 4.3 mph 6.9 kmh 4.3 mph6.9 kmh 30.07 in1018.3 mb 0.00 in0.0 mm 0.00 in0.0 mm 0.00 in0.0 mm
07:05 AM 49.6°F9.8°C 48.5°F9.2°C 96% 4.3 mph 6.9 kmh 4.3 mph6.9 kmh 30.07 in1018.3 mb 0.00 in0.0 mm 0.00 in0.0 mm 0.00 in0.0 mm
07:00 AM 49.8°F9.9°C 48.7°F9.3°C 96% 4.3 mph 6.9 kmh 4.3 mph6.9 kmh 30.07 in1018.3 mb 0.00 in0.0 mm 0.00 in0.0 mm 0.00 in0.0 mm
06:55 AM 50.0°F10.0°C 48.9°F9.4°C 96% 4.3 mph 6.9 kmh 4.3 mph6.9 kmh 30.07 in1018.3 mb 0.00 in0.0 mm 0.00 in0.0 mm 0.00 in0.0 mm
06:50 AM 50.0°F10.0°C 48.9°F9.4°C 96% 4.3 mph 6.9 kmh 4.3 mph6.9 kmh 30.07 in1018.3 mb 0.00 in0.0 mm 0.00 in0.0 mm 0.00 in0.0 mm
06:45 AM 50.0°F10.0°C 48.9°F9.4°C 96% 4.3 mph 6.9 kmh 4.3 mph6.9 kmh 30.07 in1018.3 mb 0.00 in0.0 mm 0.00 in0.0 mm 0.00 in0.0 mm
06:40 AM 50.0°F10.0°C 48.9°F9.4°C 96% 4.3 mph 6.9 kmh 4.3 mph6.9 kmh 30.07 in1018.3 mb 0.00 in0.0 mm 0.00 in0.0 mm 0.00 in0.0 mm
06:35 AM 50.0°F10.0°C 48.9°F9.4°C 96% 4.3 mph 6.9 kmh 4.3 mph6.9 kmh 30.07 in1018.3 mb 0.00 in0.0 mm 0.00 in0.0 mm 0.00 in0.0 mm
06:30 AM 50.0°F10.0°C 48.9°F9.4°C 96% 4.3 mph 6.9 kmh 4.3 mph6.9 kmh 30.07 in1018.3 mb 0.00 in0.0 mm 0.00 in0.0 mm 0.00 in0.0 mm
06:25 AM 50.0°F10.0°C 48.9°F9.4°C 96% 4.3 mph 6.9 kmh 4.3 mph6.9 kmh 30.07 in1018.3 mb 0.00 in0.0 mm 0.00 in0.0 mm 0.00 in0.0 mm
06:20 AM 50.0°F10.0°C 48.9°F9.4°C 96% 4.3 mph 6.9 kmh 4.3 mph6.9 kmh 30.07 in1018.3 mb 0.00 in0.0 mm 0.00 in0.0 mm 0.00 in0.0 mm
06:15 AM 50.0°F10.0°C 48.9°F9.4°C 96% 4.3 mph 6.9 kmh 4.3 mph6.9 kmh 30.07 in1018.3 mb 0.00 in0.0 mm 0.00 in0.0 mm 0.00 in0.0 mm
06:10 AM 50.0°F10.0°C 48.9°F9.4°C 96% 4.3 mph 6.9 kmh 4.3 mph6.9 kmh 30.07 in1018.3 mb 0.00 in0.0 mm 0.00 in0.0 mm 0.00 in0.0 mm
06:05 AM 50.0°F10.0°C 48.9°F9.4°C 96% 4.3 mph 6.9 kmh 4.3 mph6.9 kmh 30.07 in1018.3 mb 0.00 in0.0 mm 0.00 in0.0 mm 0.00 in0.0 mm
06:00 AM 50.0°F10.0°C 48.9°F9.4°C 96% 4.3 mph 6.9 kmh 4.3 mph6.9 kmh 30.07 in1018.3 mb 0.00 in0.0 mm 0.00 in0.0 mm 0.00 in0.0 mm
05:55 AM 50.0°F10.0°C 48.9°F9.4°C 96% 4.3 mph 6.9 kmh 4.3 mph6.9 kmh 30.07 in1018.3 mb 0.00 in0.0 mm 0.00 in0.0 mm 0.00 in0.0 mm
05:50 AM 50.0°F10.0°C 48.9°F9.4°C 96% 4.3 mph 6.9 kmh 4.3 mph6.9 kmh 30.07 in1018.3 mb 0.00 in0.0 mm 0.00 in0.0 mm 0.00 in0.0 mm
05:45 AM 50.0°F10.0°C 48.9°F9.4°C 96% 4.3 mph 6.9 kmh 4.3 mph6.9 kmh 30.10 in1019.3 mb 0.00 in0.0 mm 0.00 in0.0 mm 0.00 in0.0 mm
05:40 AM 50.1°F10.1°C 49.0°F9.4°C 96% 4.3 mph 6.9 kmh 4.3 mph6.9 kmh 30.10 in1019.3 mb 0.00 in0.0 mm 0.00 in0.0 mm 0.00 in0.0 mm
05:35 AM 50.0°F10.0°C 48.9°F9.4°C 96% 4.3 mph 6.9 kmh 4.3 mph6.9 kmh 30.10 in1019.3 mb 0.00 in0.0 mm 0.00 in0.0 mm 0.00 in0.0 mm
05:30 AM 50.0°F10.0°C 48.9°F9.4°C 96% 4.3 mph 6.9 kmh 4.3 mph6.9 kmh 30.10 in1019.3 mb 0.00 in0.0 mm 0.00 in0.0 mm 0.00 in0.0 mm
05:25 AM 50.1°F10.1°C 49.0°F9.4°C 96% 4.3 mph 6.9 kmh 4.3 mph6.9 kmh 30.10 in1019.3 mb 0.00 in0.0 mm 0.00 in0.0 mm 0.00 in0.0 mm
05:20 AM 50.1°F10.1°C 49.0°F9.4°C 96% 4.3 mph 6.9 kmh 4.3 mph6.9 kmh 30.10 in1019.3 mb 0.00 in0.0 mm 0.00 in0.0 mm 0.00 in0.0 mm
05:15 AM 50.1°F10.1°C 49.0°F9.4°C 96% 4.3 mph 6.9 kmh 4.3 mph6.9 kmh 30.10 in1019.3 mb 0.00 in0.0 mm 0.00 in0.0 mm 0.00 in0.0 mm
05:10 AM 50.1°F10.1°C 49.0°F9.4°C 96% 4.3 mph 6.9 kmh 4.3 mph6.9 kmh 30.10 in1019.3 mb 0.00 in0.0 mm 0.00 in0.0 mm 0.00 in0.0 mm
05:05 AM 50.0°F10.0°C 48.9°F9.4°C 96% 4.3 mph 6.9 kmh 4.3 mph6.9 kmh 30.10 in1019.3 mb 0.00 in0.0 mm 0.00 in0.0 mm 0.00 in0.0 mm
05:00 AM 50.0°F10.0°C 48.9°F9.4°C 96% 4.3 mph 6.9 kmh 4.3 mph6.9 kmh 30.10 in1019.3 mb 0.00 in0.0 mm 0.00 in0.0 mm 0.00 in0.0 mm
04:55 AM 50.0°F10.0°C 48.6°F9.2°C 95% 4.3 mph 6.9 kmh 4.3 mph6.9 kmh 30.10 in1019.3 mb 0.00 in0.0 mm 0.00 in0.0 mm 0.00 in0.0 mm
04:50 AM 50.0°F10.0°C 48.6°F9.2°C 95% 4.3 mph 6.9 kmh 4.3 mph6.9 kmh 30.10 in1019.3 mb 0.00 in0.0 mm 0.00 in0.0 mm 0.00 in0.0 mm
04:45 AM 50.0°F10.0°C 48.6°F9.2°C 95% 4.3 mph 6.9 kmh 4.3 mph6.9 kmh 30.10 in1019.3 mb 0.00 in0.0 mm 0.00 in0.0 mm 0.00 in0.0 mm
04:40 AM 50.0°F10.0°C 48.6°F9.2°C 95% 4.3 mph 6.9 kmh 4.3 mph6.9 kmh 30.10 in1019.3 mb 0.00 in0.0 mm 0.00 in0.0 mm 0.00 in0.0 mm
04:35 AM 50.0°F10.0°C 48.6°F9.2°C 95% 4.3 mph 6.9 kmh 4.3 mph6.9 kmh 30.10 in1019.3 mb 0.00 in0.0 mm 0.00 in0.0 mm 0.00 in0.0 mm
04:30 AM 50.0°F10.0°C 48.6°F9.2°C 95% 4.3 mph 6.9 kmh 4.3 mph6.9 kmh 30.10 in1019.3 mb 0.00 in0.0 mm 0.00 in0.0 mm 0.00 in0.0 mm
04:25 AM 50.0°F10.0°C 48.6°F9.2°C 95% 4.3 mph 6.9 kmh 4.3 mph6.9 kmh 30.10 in1019.3 mb 0.00 in0.0 mm 0.00 in0.0 mm 0.00 in0.0 mm
04:20 AM 49.8°F9.9°C 48.7°F9.3°C 96% 4.3 mph 6.9 kmh 4.3 mph6.9 kmh 30.10 in1019.3 mb 0.00 in0.0 mm 0.00 in0.0 mm 0.00 in0.0 mm
04:15 AM 50.0°F10.0°C 48.6°F9.2°C 95% 4.3 mph 6.9 kmh 4.3 mph6.9 kmh 30.10 in1019.3 mb 0.00 in0.0 mm 0.00 in0.0 mm 0.00 in0.0 mm
04:10 AM 50.0°F10.0°C 48.6°F9.2°C 95% 4.3 mph 6.9 kmh 4.3 mph6.9 kmh 30.10 in1019.3 mb 0.00 in0.0 mm 0.00 in0.0 mm 0.00 in0.0 mm
04:05 AM 50.1°F10.1°C 48.8°F9.3°C 95% 4.3 mph 6.9 kmh 4.3 mph6.9 kmh 30.10 in1019.3 mb 0.00 in0.0 mm 0.00 in0.0 mm 0.00 in0.0 mm
04:00 AM 50.0°F10.0°C 48.6°F9.2°C 95% 4.3 mph 6.9 kmh 4.3 mph6.9 kmh 30.10 in1019.3 mb 0.00 in0.0 mm 0.00 in0.0 mm 0.00 in0.0 mm
03:55 AM 50.1°F10.1°C 48.8°F9.3°C 95% 4.3 mph 6.9 kmh 4.3 mph6.9 kmh 30.10 in1019.3 mb 0.00 in0.0 mm 0.00 in0.0 mm 0.00 in0.0 mm
03:50 AM 50.0°F10.0°C 48.6°F9.2°C 95% 4.3 mph 6.9 kmh 4.3 mph6.9 kmh 30.10 in1019.3 mb 0.00 in0.0 mm 0.00 in0.0 mm 0.00 in0.0 mm
03:45 AM 50.0°F10.0°C 48.6°F9.2°C 95% 4.3 mph 6.9 kmh 4.3 mph6.9 kmh 30.10 in1019.3 mb 0.00 in0.0 mm 0.00 in0.0 mm 0.00 in0.0 mm
03:40 AM 50.0°F10.0°C 48.6°F9.2°C 95% 4.3 mph 6.9 kmh 4.3 mph6.9 kmh 30.10 in1019.3 mb 0.00 in0.0 mm 0.00 in0.0 mm 0.00 in0.0 mm
03:35 AM 50.0°F10.0°C 48.6°F9.2°C 95% 4.3 mph 6.9 kmh 4.3 mph6.9 kmh 30.10 in1019.3 mb 0.00 in0.0 mm 0.00 in0.0 mm 0.00 in0.0 mm
03:30 AM 50.0°F10.0°C 48.6°F9.2°C 95% 4.3 mph 6.9 kmh 4.3 mph6.9 kmh 30.10 in1019.3 mb 0.00 in0.0 mm 0.00 in0.0 mm 0.00 in0.0 mm
03:25 AM 50.0°F10.0°C 48.6°F9.2°C 95% 4.3 mph 6.9 kmh 4.3 mph6.9 kmh 30.10 in1019.3 mb 0.00 in0.0 mm 0.00 in0.0 mm 0.00 in0.0 mm
03:20 AM 50.0°F10.0°C 48.6°F9.2°C 95% 4.3 mph 6.9 kmh 4.3 mph6.9 kmh 30.10 in1019.3 mb 0.00 in0.0 mm 0.00 in0.0 mm 0.00 in0.0 mm
03:15 AM 50.0°F10.0°C 48.6°F9.2°C 95% 4.3 mph 6.9 kmh 4.3 mph6.9 kmh 30.10 in1019.3 mb 0.00 in0.0 mm 0.00 in0.0 mm 0.00 in0.0 mm
03:10 AM 50.0°F10.0°C 48.6°F9.2°C 95% 4.3 mph 6.9 kmh 4.3 mph6.9 kmh 30.10 in1019.3 mb 0.00 in0.0 mm 0.00 in0.0 mm 0.00 in0.0 mm
03:05 AM 50.1°F10.1°C 48.8°F9.3°C 95% 4.3 mph 6.9 kmh 4.3 mph6.9 kmh 30.10 in1019.3 mb 0.00 in0.0 mm 0.00 in0.0 mm 0.00 in0.0 mm
03:00 AM 50.1°F10.1°C 48.8°F9.3°C 95% 4.3 mph 6.9 kmh 4.3 mph6.9 kmh 30.10 in1019.3 mb 0.00 in0.0 mm 0.00 in0.0 mm 0.00 in0.0 mm
02:55 AM 50.1°F10.1°C 48.8°F9.3°C 95% 4.3 mph 6.9 kmh 4.3 mph6.9 kmh 30.10 in1019.3 mb 0.00 in0.0 mm 0.00 in0.0 mm 0.00 in0.0 mm
02:50 AM 50.1°F10.1°C 48.8°F9.3°C 95% 4.3 mph 6.9 kmh 4.3 mph6.9 kmh 30.10 in1019.3 mb 0.00 in0.0 mm 0.00 in0.0 mm 0.00 in0.0 mm
02:45 AM 50.1°F10.1°C 48.8°F9.3°C 95% 4.3 mph 6.9 kmh 4.3 mph6.9 kmh 30.13 in1020.3 mb 0.00 in0.0 mm 0.00 in0.0 mm 0.00 in0.0 mm
02:40 AM 50.1°F10.1°C 48.8°F9.3°C 95% 4.3 mph 6.9 kmh 4.3 mph6.9 kmh 30.13 in1020.3 mb 0.00 in0.0 mm 0.00 in0.0 mm 0.00 in0.0 mm
02:35 AM 50.1°F10.1°C 48.8°F9.3°C 95% 4.3 mph 6.9 kmh 4.3 mph6.9 kmh 30.13 in1020.3 mb 0.00 in0.0 mm 0.00 in0.0 mm 0.00 in0.0 mm
02:30 AM 50.1°F10.1°C 48.8°F9.3°C 95% 4.3 mph 6.9 kmh 4.3 mph6.9 kmh 30.10 in1019.3 mb 0.00 in0.0 mm 0.00 in0.0 mm 0.00 in0.0 mm
02:25 AM 50.1°F10.1°C 48.8°F9.3°C 95% 4.3 mph 6.9 kmh 4.3 mph6.9 kmh 30.10 in1019.3 mb 0.00 in0.0 mm 0.00 in0.0 mm 0.00 in0.0 mm
02:20 AM 50.0°F10.0°C 48.6°F9.2°C 95% 4.3 mph 6.9 kmh 4.3 mph6.9 kmh 30.10 in1019.3 mb 0.00 in0.0 mm 0.00 in0.0 mm 0.00 in0.0 mm
02:15 AM 49.8°F9.9°C 48.4°F9.1°C 95% 4.3 mph 6.9 kmh 4.3 mph6.9 kmh 30.10 in1019.3 mb 0.00 in0.0 mm 0.00 in0.0 mm 0.00 in0.0 mm
02:10 AM 49.8°F9.9°C 48.4°F9.1°C 95% 4.3 mph 6.9 kmh 4.3 mph6.9 kmh 30.10 in1019.3 mb 0.00 in0.0 mm 0.00 in0.0 mm 0.00 in0.0 mm
02:05 AM 49.8°F9.9°C 48.4°F9.1°C 95% 4.3 mph 6.9 kmh 4.3 mph6.9 kmh 30.10 in1019.3 mb 0.00 in0.0 mm 0.00 in0.0 mm 0.00 in0.0 mm
02:00 AM 50.0°F10.0°C 48.3°F9.1°C 94% 4.3 mph 6.9 kmh 4.3 mph6.9 kmh 30.10 in1019.3 mb 0.00 in0.0 mm 0.00 in0.0 mm 0.00 in0.0 mm
01:55 AM 50.0°F10.0°C 48.3°F9.1°C 94% 4.3 mph 6.9 kmh 4.3 mph6.9 kmh 30.10 in1019.3 mb 0.00 in0.0 mm 0.00 in0.0 mm 0.00 in0.0 mm
01:50 AM 49.8°F9.9°C 48.4°F9.1°C 95% 4.3 mph 6.9 kmh 4.3 mph6.9 kmh 30.10 in1019.3 mb 0.00 in0.0 mm 0.00 in0.0 mm 0.00 in0.0 mm
01:45 AM 49.8°F9.9°C 48.4°F9.1°C 95% 4.3 mph 6.9 kmh 4.3 mph6.9 kmh 30.10 in1019.3 mb 0.00 in0.0 mm 0.00 in0.0 mm 0.00 in0.0 mm
01:40 AM 49.8°F9.9°C 48.4°F9.1°C 95% 4.3 mph 6.9 kmh 4.3 mph6.9 kmh 30.10 in1019.3 mb 0.00 in0.0 mm 0.00 in0.0 mm 0.00 in0.0 mm
01:35 AM 49.8°F9.9°C 48.4°F9.1°C 95% 4.3 mph 6.9 kmh 4.3 mph6.9 kmh 30.10 in1019.3 mb 0.00 in0.0 mm 0.00 in0.0 mm 0.00 in0.0 mm
01:30 AM 49.8°F9.9°C 48.4°F9.1°C 95% 4.3 mph 6.9 kmh 4.3 mph6.9 kmh 30.10 in1019.3 mb 0.00 in0.0 mm 0.00 in0.0 mm 0.00 in0.0 mm
01:25 AM 49.8°F9.9°C 48.4°F9.1°C 95% 4.3 mph 6.9 kmh 4.3 mph6.9 kmh 30.10 in1019.3 mb 0.00 in0.0 mm 0.00 in0.0 mm 0.00 in0.0 mm
01:20 AM 50.0°F10.0°C 48.3°F9.1°C 94% 4.3 mph 6.9 kmh 4.3 mph6.9 kmh 30.10 in1019.3 mb 0.00 in0.0 mm 0.00 in0.0 mm 0.00 in0.0 mm
01:15 AM 49.8°F9.9°C 48.4°F9.1°C 95% 4.3 mph 6.9 kmh 4.3 mph6.9 kmh 30.13 in1020.3 mb 0.00 in0.0 mm 0.00 in0.0 mm 0.00 in0.0 mm
01:10 AM 49.8°F9.9°C 48.4°F9.1°C 95% 4.3 mph 6.9 kmh 4.3 mph6.9 kmh 30.13 in1020.3 mb 0.00 in0.0 mm 0.00 in0.0 mm 0.00 in0.0 mm
01:05 AM 49.8°F9.9°C 48.4°F9.1°C 95% 4.3 mph 6.9 kmh 4.3 mph6.9 kmh 30.13 in1020.3 mb 0.00 in0.0 mm 0.00 in0.0 mm 0.00 in0.0 mm
01:00 AM 49.8°F9.9°C 48.4°F9.1°C 95% 4.3 mph 6.9 kmh 4.3 mph6.9 kmh 30.13 in1020.3 mb 0.00 in0.0 mm 0.00 in0.0 mm 0.00 in0.0 mm
12:55 AM 49.8°F9.9°C 48.4°F9.1°C 95% 4.3 mph 6.9 kmh 4.3 mph6.9 kmh 30.13 in1020.3 mb 0.00 in0.0 mm 0.00 in0.0 mm 0.00 in0.0 mm
12:50 AM 49.6°F9.8°C 48.2°F9.0°C 95% 4.3 mph 6.9 kmh 4.3 mph6.9 kmh 30.13 in1020.3 mb 0.00 in0.0 mm 0.00 in0.0 mm 0.00 in0.0 mm
12:45 AM 49.6°F9.8°C 48.2°F9.0°C 95% 4.3 mph 6.9 kmh 4.3 mph6.9 kmh 30.13 in1020.3 mb 0.00 in0.0 mm 0.00 in0.0 mm 0.00 in0.0 mm
12:40 AM 49.6°F9.8°C 48.2°F9.0°C 95% 4.3 mph 6.9 kmh 4.3 mph6.9 kmh 30.13 in1020.3 mb 0.00 in0.0 mm 0.00 in0.0 mm 0.00 in0.0 mm
12:35 AM 49.4°F9.7°C 48.0°F8.9°C 95% 4.3 mph 6.9 kmh 4.3 mph6.9 kmh 30.13 in1020.3 mb 0.00 in0.0 mm 0.00 in0.0 mm 0.00 in0.0 mm
12:30 AM 49.4°F9.7°C 48.0°F8.9°C 95% 4.3 mph 6.9 kmh 4.3 mph6.9 kmh 30.13 in1020.3 mb 0.00 in0.0 mm 0.00 in0.0 mm 0.00 in0.0 mm
12:25 AM 49.4°F9.7°C 48.0°F8.9°C 95% 4.3 mph 6.9 kmh 4.3 mph6.9 kmh 30.13 in1020.3 mb 0.00 in0.0 mm 0.00 in0.0 mm 0.00 in0.0 mm
12:20 AM 49.2°F9.6°C 47.6°F8.7°C 94% 4.3 mph 6.9 kmh 4.3 mph6.9 kmh 30.13 in1020.3 mb 0.00 in0.0 mm 0.00 in0.0 mm 0.00 in0.0 mm
12:15 AM 49.2°F9.6°C 47.6°F8.7°C 94% 4.3 mph 6.9 kmh 4.3 mph6.9 kmh 30.10 in1019.3 mb 0.00 in0.0 mm 0.00 in0.0 mm 0.00 in0.0 mm
12:10 AM 49.2°F9.6°C 47.6°F8.7°C 94% 4.3 mph 6.9 kmh 4.3 mph6.9 kmh 30.10 in1019.3 mb 0.00 in0.0 mm 0.00 in0.0 mm 0.00 in0.0 mm
12:05 AM 49.2°F9.6°C 47.6°F8.7°C 94% 4.3 mph 6.9 kmh 4.3 mph6.9 kmh 30.10 in1019.3 mb 0.00 in0.0 mm 0.00 in0.0 mm 0.00 in0.0 mm
12:00 AM 49.2°F9.6°C 47.6°F8.7°C 94% 4.3 mph 6.9 kmh 4.3 mph6.9 kmh 30.13 in1020.3 mb 0.00 in0.0 mm 0.00 in0.0 mm 0.00 in0.0 mm